Time;durP1;ratioP1;P1;durP2;ratioP2;P2;SDS_P1;SDS_P2;PMS_P1;PMS_P2;Temp;Humidity;BMP_temperature;BMP_pressure;BME280_temperature;BME280_humidity;BME280_pressure;Samples;Min_cycle;Max_cycle;Signal;HPM_P1;HPM_P2
2022/05/14 00:01:48;;;;;;;14.87;8.47;;;11.50;97.30;;;;;;5009309;28;20181;-76
2022/05/14 00:04:14;;;;;;;11.10;8.13;;;11.40;97.30;;;;;;5009068;28;20195;-76
2022/05/14 00:06:39;;;;;;;15.60;8.80;;;11.40;97.30;;;;;;5010218;28;20244;-75
2022/05/14 00:09:06;;;;;;;15.60;9.20;;;11.40;97.30;;;;;;5008872;28;20173;-76
2022/05/14 00:14:17;;;;;;;12.80;8.97;;;11.30;97.30;;;;;;5010749;28;20972;-76
2022/05/14 00:16:44;;;;;;;13.33;7.67;;;11.20;97.30;;;;;;5010062;28;20437;-75
2022/05/14 00:19:10;;;;;;;15.20;7.93;;;11.10;97.30;;;;;;5010230;28;20169;-75
2022/05/14 00:21:37;;;;;;;15.67;9.10;;;11.10;97.30;;;;;;5009328;28;20410;-75
2022/05/14 00:24:06;;;;;;;15.07;8.33;;;11.10;97.30;;;;;;5010081;28;20173;-75
2022/05/14 00:26:33;;;;;;;14.40;9.10;;;11.10;97.30;;;;;;5008639;28;20828;-75
2022/05/14 00:28:59;;;;;;;14.87;9.70;;;11.10;97.30;;;;;;5008729;28;20490;-75
2022/05/14 00:31:25;;;;;;;13.07;8.60;;;11.10;97.30;;;;;;5009931;28;20413;-75
2022/05/14 00:33:50;;;;;;;16.17;8.67;;;11.10;97.30;;;;;;5008426;28;20427;-75
2022/05/14 00:36:16;;;;;;;13.23;8.90;;;11.10;97.30;;;;;;5008321;28;20204;-75
2022/05/14 00:38:42;;;;;;;15.40;10.00;;;11.00;97.30;;;;;;5008862;28;20173;-75
2022/05/14 00:41:08;;;;;;;10.73;8.57;;;10.90;97.30;;;;;;5025328;28;20765;-75
2022/05/14 00:43:55;;;;;;;11.80;7.13;;;10.90;97.30;;;;;;5008650;28;20412;-75
2022/05/14 00:46:31;;;;;;;14.30;9.33;;;10.80;97.30;;;;;;5008672;28;20479;-75
2022/05/14 00:48:59;;;;;;;14.60;9.30;;;10.80;97.30;;;;;;5010443;28;20415;-75
2022/05/14 00:51:28;;;;;;;11.90;8.70;;;10.80;97.30;;;;;;5010066;28;20408;-75
2022/05/14 00:54:08;;;;;;;11.80;7.80;;;10.80;97.30;;;;;;5010256;28;20502;-75
2022/05/14 00:56:50;;;;;;;11.83;8.10;;;10.80;97.30;;;;;;5008568;28;20859;-75
2022/05/14 00:59:21;;;;;;;9.97;6.83;;;10.70;97.30;;;;;;5008361;28;20914;-75
2022/05/14 01:01:48;;;;;;;10.90;7.60;;;10.70;97.30;;;;;;5009604;28;20416;-75
2022/05/14 01:04:15;;;;;;;9.70;6.47;;;10.70;97.30;;;;;;5008455;28;20465;-75
2022/05/14 01:06:55;;;;;;;8.03;6.90;;;10.70;97.30;;;;;;5007933;28;20460;-75
2022/05/14 01:09:21;;;;;;;9.20;7.33;;;10.70;97.30;;;;;;5009589;28;20412;-75
2022/05/14 01:11:49;;;;;;;10.70;7.90;;;10.70;97.30;;;;;;5009496;28;20412;-75
2022/05/14 01:14:15;;;;;;;15.93;7.57;;;10.70;97.30;;;;;;5009572;28;20181;-75
2022/05/14 01:16:40;;;;;;;10.33;7.07;;;10.70;97.30;;;;;;5008042;28;20812;-75
2022/05/14 01:19:07;;;;;;;7.63;6.43;;;10.70;97.30;;;;;;5009677;28;20197;-75
2022/05/14 01:21:48;;;;;;;18.57;6.80;;;10.60;97.30;;;;;;5008156;28;20177;-75
2022/05/14 01:27:23;;;;;;;7.60;6.27;;;10.50;97.30;;;;;;5009534;28;21043;-75
2022/05/14 01:29:49;;;;;;;12.20;6.03;;;10.50;97.30;;;;;;5008050;28;20408;-75
2022/05/14 01:32:15;;;;;;;13.90;6.50;;;10.40;97.30;;;;;;5008904;28;20424;-75
2022/05/14 01:34:41;;;;;;;10.20;6.63;;;10.40;97.30;;;;;;5012049;28;20226;-75
2022/05/14 01:37:09;;;;;;;13.83;6.00;;;10.40;97.30;;;;;;5013266;28;20420;-75
2022/05/14 01:39:35;;;;;;;9.27;6.67;;;10.40;97.30;;;;;;5013555;28;20477;-75
2022/05/14 01:42:00;;;;;;;12.40;7.33;;;10.40;97.30;;;;;;5013472;28;20416;-75
2022/05/14 01:44:26;;;;;;;12.40;6.67;;;10.40;97.30;;;;;;5011987;28;20169;-75
2022/05/14 01:46:51;;;;;;;9.80;6.57;;;10.40;97.30;;;;;;5012578;28;20300;-75
2022/05/14 01:49:17;;;;;;;12.00;6.73;;;10.40;97.30;;;;;;5012630;28;20176;-75
2022/05/14 01:51:43;;;;;;;13.90;6.40;;;10.40;97.30;;;;;;5012826;28;20188;-75
2022/05/14 01:54:09;;;;;;;9.77;6.63;;;10.30;97.30;;;;;;5012323;28;20173;-75
2022/05/14 01:56:34;;;;;;;8.60;6.67;;;10.30;97.30;;;;;;5011735;28;20209;-75
2022/05/14 01:59:00;;;;;;;16.13;6.20;;;10.30;97.30;;;;;;5011006;28;20195;-75
2022/05/14 02:01:34;;;;;;;9.97;6.30;;;10.30;97.30;;;;;;5012779;28;20185;-75
2022/05/14 02:04:09;;;;;;;10.13;6.50;;;10.40;97.30;;;;;;5012356;28;20271;-75
2022/05/14 02:06:35;;;;;;;8.30;6.20;;;10.40;97.30;;;;;;5011524;28;20532;-75
2022/05/14 02:09:03;;;;;;;12.20;6.80;;;10.40;97.30;;;;;;5012179;28;20408;-75
2022/05/14 02:11:28;;;;;;;7.23;5.37;;;10.40;97.30;;;;;;5011241;28;20408;-75
2022/05/14 02:13:55;;;;;;;7.80;6.23;;;10.30;97.30;;;;;;5011095;28;20433;-75
2022/05/14 02:16:21;;;;;;;9.90;6.00;;;10.30;97.30;;;;;;5010854;28;20193;-75
2022/05/14 02:18:47;;;;;;;8.60;5.90;;;10.30;97.30;;;;;;5011037;28;20420;-77
2022/05/14 02:21:20;;;;;;;8.07;6.10;;;10.30;97.30;;;;;;5012822;28;20499;-77
2022/05/14 02:23:46;;;;;;;13.77;6.13;;;10.30;97.30;;;;;;5012499;28;20478;-79
2022/05/14 02:26:13;;;;;;;10.83;6.90;;;10.30;97.30;;;;;;5011447;28;20490;-78
2022/05/14 02:28:39;;;;;;;7.10;5.90;;;10.30;97.30;;;;;;5012420;28;20404;-77
2022/05/14 02:31:05;;;;;;;8.10;6.20;;;10.40;97.30;;;;;;5012071;28;20487;-78
2022/05/14 02:33:31;;;;;;;7.90;5.67;;;10.40;97.30;;;;;;5012134;28;20905;-77
2022/05/14 02:35:58;;;;;;;9.93;5.70;;;10.40;97.30;;;;;;5010608;28;20230;-78
2022/05/14 02:38:24;;;;;;;7.13;5.50;;;10.40;97.30;;;;;;5010615;28;20178;-77
2022/05/14 02:40:50;;;;;;;7.10;5.87;;;10.40;97.30;;;;;;5012364;28;20781;-77
2022/05/14 02:43:16;;;;;;;9.50;5.70;;;10.40;97.30;;;;;;5010283;28;20420;-78
2022/05/14 02:45:42;;;;;;;10.37;6.60;;;10.30;97.30;;;;;;5009666;28;20284;-77
2022/05/14 02:48:10;;;;;;;8.47;5.67;;;10.30;97.30;;;;;;5010694;28;20192;-77
2022/05/14 02:50:35;;;;;;;6.90;5.67;;;10.30;97.30;;;;;;5010622;28;20173;-77
2022/05/14 02:53:01;;;;;;;10.90;6.20;;;10.30;97.30;;;;;;5010195;28;20431;-77
2022/05/14 02:55:27;;;;;;;15.70;6.90;;;10.30;97.30;;;;;;5011402;28;20227;-77
2022/05/14 02:57:52;;;;;;;12.10;6.70;;;10.30;97.30;;;;;;5011635;28;20638;-77
2022/05/14 03:00:19;;;;;;;8.30;6.57;;;10.30;97.30;;;;;;5011660;28;20184;-77
2022/05/14 03:02:45;;;;;;;19.43;7.53;;;10.30;97.30;;;;;;5010365;28;20235;-77
2022/05/14 03:05:13;;;;;;;12.80;6.10;;;10.30;97.30;;;;;;5010394;28;20436;-77
2022/05/14 03:07:39;;;;;;;12.93;6.70;;;10.30;97.30;;;;;;5010108;28;20455;-77
2022/05/14 03:10:06;;;;;;;13.87;7.30;;;10.30;97.30;;;;;;5011713;28;20416;-78
2022/05/14 03:12:31;;;;;;;12.57;7.63;;;10.30;97.30;;;;;;5010451;28;20510;-77
2022/05/14 03:14:57;;;;;;;13.60;8.30;;;10.30;97.30;;;;;;5011849;28;20463;-78
2022/05/14 03:17:23;;;;;;;13.20;8.60;;;10.30;97.30;;;;;;5010473;28;20392;-77
2022/05/14 03:19:49;;;;;;;12.70;8.53;;;10.30;97.30;;;;;;5011351;28;20247;-76
2022/05/14 03:22:16;;;;;;;15.40;9.17;;;10.30;97.30;;;;;;5011918;28;20247;-77
2022/05/14 03:24:41;;;;;;;15.27;10.13;;;10.30;97.30;;;;;;5010016;28;20404;-77
2022/05/14 03:27:07;;;;;;;22.17;12.50;;;10.30;97.30;;;;;;5009910;28;20482;-77
2022/05/14 03:29:34;;;;;;;17.07;11.13;;;10.30;97.30;;;;;;5026275;28;20714;-78
2022/05/14 03:32:00;;;;;;;17.60;11.57;;;10.30;97.30;;;;;;5011375;28;20177;-78
2022/05/14 03:34:27;;;;;;;23.17;11.20;;;10.30;97.30;;;;;;5009612;28;20419;-77
2022/05/14 03:36:53;;;;;;;25.97;13.33;;;10.20;97.30;;;;;;5009408;28;20196;-77
2022/05/14 03:39:19;;;;;;;18.80;12.70;;;10.20;97.30;;;;;;5009639;28;20426;-78
2022/05/14 03:41:45;;;;;;;20.57;11.90;;;10.20;97.30;;;;;;5011366;28;20891;-77
2022/05/14 03:44:11;;;;;;;17.77;11.20;;;10.30;97.30;;;;;;5009635;28;20184;-78
2022/05/14 03:46:37;;;;;;;17.90;10.40;;;10.30;97.30;;;;;;5009419;28;20455;-77
2022/05/14 03:49:03;;;;;;;18.13;12.13;;;10.30;97.30;;;;;;5010530;28;20404;-77
2022/05/14 03:51:29;;;;;;;23.30;13.30;;;10.30;97.30;;;;;;5009400;28;20184;-76
2022/05/14 03:53:57;;;;;;;30.03;13.90;;;10.30;97.30;;;;;;5009032;28;20910;-77
2022/05/14 03:56:23;;;;;;;22.90;14.57;;;10.40;97.30;;;;;;5009995;28;20435;-77
2022/05/14 03:58:48;;;;;;;23.70;13.23;;;10.40;97.30;;;;;;5009075;28;20432;-77
2022/05/14 04:01:14;;;;;;;23.60;13.00;;;10.40;97.30;;;;;;5010161;28;20558;-77
2022/05/14 04:03:40;;;;;;;21.80;13.97;;;10.40;97.30;;;;;;5009547;28;20212;-76
2022/05/14 04:06:06;;;;;;;28.00;12.00;;;10.40;97.30;;;;;;5010448;28;20213;-76
2022/05/14 04:08:33;;;;;;;28.40;15.83;;;10.40;97.30;;;;;;5009192;28;20430;-77
2022/05/14 04:10:59;;;;;;;21.87;13.03;;;10.40;97.30;;;;;;5010116;28;20420;-77
2022/05/14 04:13:26;;;;;;;20.63;10.93;;;10.40;97.30;;;;;;5008868;28;20934;-77
2022/05/14 04:15:52;;;;;;;22.33;7.20;;;10.30;97.30;;;;;;5010175;28;20436;-77
2022/05/14 04:18:24;;;;;;;12.73;7.27;;;10.30;97.30;;;;;;5008935;28;20475;-77
2022/05/14 04:20:53;;;;;;;9.80;6.70;;;10.30;97.30;;;;;;5010508;28;20424;-77
2022/05/14 04:23:19;;;;;;;14.33;8.30;;;10.40;97.30;;;;;;5006309;28;20409;-77
2022/05/14 04:25:44;;;;;;;13.60;6.53;;;10.40;97.30;;;;;;5009049;28;21024;-76
2022/05/14 04:28:10;;;;;;;10.80;5.90;;;10.40;97.30;;;;;;5010808;28;20412;-76
2022/05/14 04:30:36;;;;;;;16.97;5.83;;;10.50;97.30;;;;;;5009239;28;20185;-76
2022/05/14 04:33:02;;;;;;;8.47;5.37;;;10.60;97.30;;;;;;5008453;28;20412;-76
2022/05/14 04:35:28;;;;;;;10.00;5.83;;;10.70;97.30;;;;;;5007402;28;20850;-76
2022/05/14 04:37:53;;;;;;;12.77;5.17;;;10.70;97.30;;;;;;5009173;28;20643;-76
2022/05/14 04:40:19;;;;;;;9.97;5.50;;;10.80;97.30;;;;;;5008496;28;20224;-76
2022/05/14 04:42:44;;;;;;;7.30;4.83;;;10.80;97.30;;;;;;5010449;28;20189;-76
2022/05/14 04:45:10;;;;;;;16.50;4.87;;;10.80;97.30;;;;;;5008740;28;20215;-76
2022/05/14 04:47:36;;;;;;;9.43;5.30;;;10.90;97.30;;;;;;5009852;28;20215;-76
2022/05/14 04:50:03;;;;;;;7.50;5.07;;;10.90;97.30;;;;;;5010017;28;20416;-76
2022/05/14 04:52:28;;;;;;;7.90;5.20;;;10.90;97.30;;;;;;5009301;28;20466;-76
2022/05/14 04:54:54;;;;;;;13.80;5.03;;;11.00;97.30;;;;;;5008755;28;20480;-76
2022/05/14 04:57:19;;;;;;;12.23;6.00;;;11.00;97.30;;;;;;5010322;28;20169;-76
2022/05/14 04:59:45;;;;;;;7.07;5.00;;;11.10;97.30;;;;;;5008052;28;20189;-76
2022/05/14 05:04:55;;;;;;;9.30;5.33;;;11.20;97.30;;;;;;5009045;28;20239;-76
2022/05/14 05:07:20;;;;;;;11.50;5.13;;;11.20;97.30;;;;;;5010459;28;20498;-76
2022/05/14 05:09:46;;;;;;;6.40;4.80;;;11.30;97.30;;;;;;5012305;28;20204;-76
2022/05/14 05:12:12;;;;;;;12.03;5.33;;;11.30;97.30;;;;;;5012487;28;20654;-76
2022/05/14 05:14:38;;;;;;;9.20;4.70;;;11.40;97.30;;;;;;5012235;28;20502;-76
2022/05/14 05:17:04;;;;;;;8.40;4.93;;;11.40;97.30;;;;;;5013747;28;20419;-76
2022/05/14 05:19:30;;;;;;;13.00;4.80;;;11.50;97.30;;;;;;5012026;28;20428;-76
2022/05/14 05:21:57;;;;;;;10.47;5.47;;;11.50;97.30;;;;;;5012337;28;20428;-76
2022/05/14 05:24:23;;;;;;;11.47;4.80;;;11.60;97.30;;;;;;5012253;28;20917;-76
2022/05/14 05:26:48;;;;;;;9.80;5.40;;;11.70;97.30;;;;;;5013508;28;20470;-77
2022/05/14 05:29:14;;;;;;;7.43;5.03;;;11.80;97.30;;;;;;5013669;28;20466;-78
2022/05/14 05:31:39;;;;;;;8.37;4.90;;;11.80;97.30;;;;;;5013210;28;20263;-77
2022/05/14 05:34:05;;;;;;;7.63;5.17;;;11.90;97.30;;;;;;5014055;28;20177;-77
2022/05/14 05:36:31;;;;;;;8.30;4.70;;;12.00;97.30;;;;;;5013466;28;20198;-76
2022/05/14 05:38:58;;;;;;;9.37;5.07;;;12.10;97.30;;;;;;5012189;28;20424;-76
2022/05/14 05:41:24;;;;;;;8.90;5.43;;;12.20;97.30;;;;;;5012388;28;20176;-76
2022/05/14 05:43:49;;;;;;;8.03;5.43;;;12.30;97.30;;;;;;5012273;28;20467;-76
2022/05/14 05:46:15;;;;;;;13.30;4.40;;;12.40;97.30;;;;;;5012240;28;20495;-77
2022/05/14 05:48:43;;;;;;;9.53;5.37;;;12.50;97.30;;;;;;5012547;28;20184;-77
2022/05/14 05:51:09;;;;;;;9.77;5.20;;;12.50;97.30;;;;;;5013530;28;20169;-77
2022/05/14 05:59:05;;;;;;;7.60;4.80;;;12.80;97.30;;;;;;5013016;28;20442;-76
2022/05/14 06:01:31;;;;;;;6.90;4.33;;;12.90;97.30;;;;;;5011300;28;20424;-78
2022/05/14 06:03:57;;;;;;;7.97;5.50;;;13.00;97.30;;;;;;5011537;28;20423;-76
2022/05/14 06:06:23;;;;;;;7.10;4.97;;;13.10;97.30;;;;;;5011488;28;20464;-76
2022/05/14 06:08:49;;;;;;;6.40;4.90;;;13.10;97.30;;;;;;5011525;28;20416;-76
2022/05/14 06:11:16;;;;;;;12.43;5.10;;;13.20;97.30;;;;;;5011426;28;20817;-76
2022/05/14 06:13:43;;;;;;;8.30;5.03;;;13.30;97.30;;;;;;5011419;28;20417;-77
2022/05/14 06:16:09;;;;;;;6.40;4.60;;;13.40;97.30;;;;;;5012387;28;20945;-76
2022/05/14 06:18:35;;;;;;;12.83;6.40;;;13.50;97.30;;;;;;5010554;28;20416;-76
2022/05/14 06:21:00;;;;;;;9.63;5.00;;;13.60;97.30;;;;;;5011272;28;20436;-77
2022/05/14 06:23:26;;;;;;;9.33;5.77;;;13.70;97.00;;;;;;5012475;28;20570;-76
2022/05/14 06:25:52;;;;;;;12.00;5.70;;;13.80;97.20;;;;;;5011090;28;20201;-76
2022/05/14 06:28:18;;;;;;;10.10;5.37;;;13.90;97.00;;;;;;5011357;28;20409;-76
2022/05/14 06:30:44;;;;;;;13.63;6.50;;;14.00;96.80;;;;;;5014625;28;20181;-76
2022/05/14 06:33:11;;;;;;;13.13;5.60;;;14.10;96.50;;;;;;5012750;28;20408;-76
2022/05/14 06:35:38;;;;;;;6.63;4.97;;;14.20;96.10;;;;;;5011073;28;20193;-76
2022/05/14 06:38:06;;;;;;;13.13;5.20;;;14.30;96.00;;;;;;5013770;28;20423;-76
2022/05/14 06:40:33;;;;;;;13.43;5.97;;;14.40;96.10;;;;;;5012398;28;20909;-76
2022/05/14 06:42:59;;;;;;;8.03;5.20;;;14.40;96.10;;;;;;5011014;28;20426;-76
2022/05/14 06:45:24;;;;;;;7.63;5.17;;;14.50;96.00;;;;;;5010071;28;20942;-77
2022/05/14 06:47:50;;;;;;;5.70;4.50;;;14.60;96.50;;;;;;5008861;28;20649;-76
2022/05/14 06:50:16;;;;;;;15.30;5.30;;;14.70;95.70;;;;;;5008940;28;20181;-76
2022/05/14 06:52:45;;;;;;;9.50;4.93;;;14.80;95.70;;;;;;5009229;28;20423;-77
2022/05/14 06:55:17;;;;;;;10.10;5.60;;;14.80;95.60;;;;;;5008429;28;20243;-76
2022/05/14 06:57:43;;;;;;;7.37;4.90;;;14.90;94.90;;;;;;5011555;28;20499;-76
2022/05/14 07:00:09;;;;;;;7.50;4.70;;;14.90;95.10;;;;;;5012335;28;20503;-76
2022/05/14 07:02:35;;;;;;;10.90;5.47;;;15.00;95.10;;;;;;5011571;28;20988;-77
2022/05/14 07:07:47;;;;;;;10.10;5.70;;;15.20;95.10;;;;;;5007146;28;20978;-76
2022/05/14 07:10:12;;;;;;;15.73;6.30;;;15.40;94.90;;;;;;5012967;28;20922;-75
2022/05/14 07:12:38;;;;;;;11.57;5.33;;;15.60;94.90;;;;;;5018505;28;20539;-76
2022/05/14 07:15:06;;;;;;;19.37;5.80;;;15.70;94.60;;;;;;5010624;28;20989;-76
2022/05/14 07:17:32;;;;;;;12.43;6.03;;;15.90;94.10;;;;;;5010294;28;20269;-77
2022/05/14 07:19:57;;;;;;;13.30;5.60;;;16.00;93.30;;;;;;5010438;28;20431;-77
2022/05/14 07:22:23;;;;;;;9.80;5.63;;;16.20;93.40;;;;;;5010629;28;20188;-79
2022/05/14 07:24:50;;;;;;;18.33;6.50;;;16.30;92.50;;;;;;5015898;28;20176;-77
2022/05/14 07:27:16;;;;;;;7.70;5.00;;;16.50;92.10;;;;;;5013088;28;20463;-77
2022/05/14 07:29:43;;;;;;;13.50;6.57;;;16.60;92.20;;;;;;5012096;28;20411;-77
2022/05/14 07:32:15;;;;;;;9.07;5.70;;;16.70;90.60;;;;;;5010153;28;20605;-76
2022/05/14 07:34:41;;;;;;;14.60;6.07;;;16.70;91.00;;;;;;5011402;28;20400;-76
2022/05/14 07:37:33;;;;;;;9.30;5.67;;;16.80;90.10;;;;;;5006946;28;20421;-77
2022/05/14 07:40:10;;;;;;;9.30;5.17;;;16.90;90.90;;;;;;4998961;28;20499;-78
2022/05/14 07:42:41;;;;;;;11.90;5.70;;;17.00;89.80;;;;;;5023204;28;20940;-77
2022/05/14 07:45:10;;;;;;;8.97;4.93;;;17.10;88.70;;;;;;4993037;28;20918;-78
2022/05/14 07:47:36;;;;;;;9.87;5.20;;;17.10;89.10;;;;;;5010870;28;20484;-78
2022/05/14 07:50:04;;;;;;;11.93;6.17;;;17.20;89.10;;;;;;5011217;28;20412;-78
2022/05/14 07:52:30;;;;;;;10.47;5.57;;;17.40;88.70;;;;;;5005907;28;20413;-76
2022/05/14 07:54:56;;;;;;;14.20;6.20;;;17.40;88.70;;;;;;5008694;28;20485;-81
2022/05/14 07:57:21;;;;;;;16.33;5.10;;;17.50;88.40;;;;;;5016276;28;20411;-78
2022/05/14 07:59:47;;;;;;;13.10;5.97;;;17.60;88.20;;;;;;5009860;28;20177;-79
2022/05/14 08:02:22;;;;;;;12.43;5.50;;;17.70;87.40;;;;;;5006253;28;20178;-79
2022/05/14 08:04:48;;;;;;;12.33;6.30;;;17.70;87.80;;;;;;5020704;28;20239;-79
2022/05/14 08:07:14;;;;;;;9.30;5.10;;;17.80;87.40;;;;;;5023830;28;20596;-78
2022/05/14 08:09:40;;;;;;;12.20;5.60;;;17.80;86.80;;;;;;5023060;28;20560;-77
2022/05/14 08:12:06;;;;;;;9.20;5.80;;;17.90;86.40;;;;;;5008152;28;20174;-76
2022/05/14 08:14:33;;;;;;;9.00;5.00;;;17.90;86.30;;;;;;5008166;28;20701;-74
2022/05/14 08:16:59;;;;;;;16.17;6.20;;;17.90;87.00;;;;;;5010162;28;20957;-78
2022/05/14 08:19:25;;;;;;;9.33;5.10;;;18.00;84.90;;;;;;5009134;28;20420;-78
2022/05/14 08:24:34;;;;;;;10.70;6.00;;;18.00;84.40;;;;;;5010312;28;20252;-78
2022/05/14 08:27:04;;;;;;;13.57;5.37;;;18.10;84.20;;;;;;5009612;28;20554;-76
2022/05/14 08:29:30;;;;;;;9.13;6.20;;;18.10;83.60;;;;;;5009386;28;20188;-76
2022/05/14 08:31:55;;;;;;;14.97;6.63;;;18.20;85.00;;;;;;5009189;28;20419;-75
2022/05/14 08:34:21;;;;;;;16.23;7.07;;;18.30;83.70;;;;;;5010268;28;20903;-76
2022/05/14 08:36:47;;;;;;;12.40;6.13;;;18.40;84.70;;;;;;5010169;28;20338;-78
2022/05/14 08:39:13;;;;;;;13.10;6.53;;;18.50;83.60;;;;;;5009567;28;20250;-80
2022/05/14 08:41:43;;;;;;;16.90;6.97;;;18.60;83.00;;;;;;5010446;28;20177;-79
2022/05/14 08:44:15;;;;;;;12.77;6.67;;;18.70;82.30;;;;;;5010749;28;20427;-77
2022/05/14 08:46:43;;;;;;;12.13;6.13;;;18.70;82.80;;;;;;5011040;28;20558;-83
2022/05/14 08:49:20;;;;;;;12.27;5.23;;;18.70;82.30;;;;;;5011416;28;20423;-81
2022/05/14 08:51:49;;;;;;;13.33;6.77;;;18.70;83.20;;;;;;5011092;28;20416;-78
2022/05/14 08:54:14;;;;;;;10.93;5.57;;;18.80;82.80;;;;;;5012189;28;20977;-81
2022/05/14 08:56:51;;;;;;;16.00;6.27;;;18.80;82.50;;;;;;5013628;28;20440;-82
2022/05/14 08:59:42;;;;;;;12.53;5.73;;;18.90;82.70;;;;;;5013321;28;20662;-81
2022/05/14 09:02:15;;;;;;;11.77;5.97;;;19.00;82.20;;;;;;5012698;28;20523;-84
2022/05/14 09:04:41;;;;;;;12.97;6.20;;;19.10;82.40;;;;;;5014075;28;20510;-81
2022/05/14 09:07:07;;;;;;;9.90;5.67;;;19.10;82.80;;;;;;5013332;28;20502;-81
2022/05/14 09:09:32;;;;;;;10.10;5.33;;;19.30;83.00;;;;;;5015473;28;20185;-81
2022/05/14 09:12:01;;;;;;;15.63;5.23;;;19.30;81.90;;;;;;5013394;28;20169;-81
2022/05/14 09:14:30;;;;;;;11.43;4.90;;;19.40;82.10;;;;;;5013952;28;20631;-81
2022/05/14 09:17:21;;;;;;;14.73;5.10;;;19.40;82.30;;;;;;5012701;28;20808;-83
2022/05/14 09:19:49;;;;;;;9.33;5.10;;;19.50;81.50;;;;;;5014893;28;20937;-81
2022/05/14 09:22:45;;;;;;;10.30;4.90;;;19.60;81.60;;;;;;5012392;28;20668;-81
2022/05/14 09:25:34;;;;;;;9.50;5.40;;;19.70;81.90;;;;;;5013188;28;20862;-81
2022/05/14 09:28:03;;;;;;;12.63;5.43;;;19.80;81.80;;;;;;5012569;28;20492;-81
2022/05/14 09:30:36;;;;;;;12.80;5.67;;;19.80;81.40;;;;;;5012521;28;20420;-80
2022/05/14 09:33:03;;;;;;;8.50;5.13;;;19.80;80.70;;;;;;5011832;28;20993;-80
2022/05/14 09:35:34;;;;;;;9.37;4.87;;;19.80;80.40;;;;;;5012492;28;20843;-79
2022/05/14 09:38:26;;;;;;;11.07;4.70;;;19.90;81.30;;;;;;5011536;28;20432;-84
2022/05/14 09:40:55;;;;;;;9.20;4.50;;;20.10;81.40;;;;;;5013090;28;20431;-82
2022/05/14 09:43:20;;;;;;;7.90;4.10;;;20.00;81.60;;;;;;5013552;28;20431;-82
2022/05/14 09:46:03;;;;;;;13.60;4.53;;;20.00;81.00;;;;;;5011505;28;21113;-81
2022/05/14 09:48:47;;;;;;;10.30;4.67;;;19.90;80.60;;;;;;5010863;28;20193;-81
2022/05/14 09:51:26;;;;;;;12.63;4.00;;;19.80;81.00;;;;;;5011653;28;20846;-82
2022/05/14 09:53:52;;;;;;;18.10;6.23;;;19.80;81.50;;;;;;5010844;28;20917;-81
2022/05/14 09:56:26;;;;;;;12.50;4.17;;;19.80;79.60;;;;;;5016173;28;20450;-83
2022/05/14 09:58:59;;;;;;;10.10;4.40;;;19.90;79.80;;;;;;5015610;28;20474;-83
2022/05/14 10:01:45;;;;;;;12.90;3.93;;;20.00;80.30;;;;;;5016032;28;20933;-85
2022/05/14 10:04:33;;;;;;;9.33;3.50;;;20.10;79.80;;;;;;5019886;28;20466;-83
2022/05/14 10:07:15;;;;;;;4.60;3.33;;;20.20;78.20;;;;;;5014948;28;20660;-82
2022/05/14 10:09:56;;;;;;;9.43;3.47;;;20.10;77.90;;;;;;5016419;28;20413;-82
2022/05/14 10:12:34;;;;;;;10.57;3.73;;;20.20;77.40;;;;;;5026944;28;20438;-82
2022/05/14 10:15:27;;;;;;;10.63;3.37;;;20.30;78.00;;;;;;5018605;28;20451;-82
2022/05/14 10:18:21;;;;;;;7.63;3.63;;;20.40;78.70;;;;;;5027743;28;20490;-82
2022/05/14 10:20:52;;;;;;;7.23;3.00;;;20.30;77.90;;;;;;5024496;28;20506;-81
2022/05/14 10:26:59;;;;;;;7.60;3.00;;;20.40;77.70;;;;;;5010844;28;20482;-82
2022/05/14 10:29:46;;;;;;;5.57;3.37;;;20.50;78.80;;;;;;5009213;28;21315;-83
2022/05/14 10:32:15;;;;;;;8.07;3.23;;;20.40;78.00;;;;;;5021970;28;20516;-81
2022/05/14 10:34:47;;;;;;;7.53;3.30;;;20.50;78.50;;;;;;5007369;28;20418;-81
2022/05/14 10:37:32;;;;;;;11.60;3.83;;;20.60;77.70;;;;;;5024222;28;20431;-83
2022/05/14 10:40:10;;;;;;;8.60;3.70;;;20.80;77.00;;;;;;5030041;28;20411;-84
2022/05/14 10:43:07;;;;;;;9.57;3.40;;;21.00;77.20;;;;;;5009128;28;20408;-80
2022/05/14 10:45:34;;;;;;;8.47;3.80;;;21.20;76.40;;;;;;5013627;28;20844;-86
2022/05/14 10:48:04;;;;;;;11.80;3.10;;;21.20;76.60;;;;;;5004082;28;20452;-81
2022/05/14 10:50:30;;;;;;;8.53;3.30;;;21.30;75.70;;;;;;5021986;28;20987;-81
2022/05/14 10:52:57;;;;;;;8.00;3.53;;;21.30;76.20;;;;;;5013008;28;20933;-83
2022/05/14 10:55:30;;;;;;;8.60;3.00;;;21.40;76.00;;;;;;5014623;28;20213;-82
2022/05/14 10:58:07;;;;;;;6.93;3.03;;;21.50;76.00;;;;;;5029008;28;20423;-82
2022/05/14 11:00:41;;;;;;;6.67;3.47;;;21.50;75.40;;;;;;5031667;28;20428;-82
2022/05/14 11:03:25;;;;;;;13.07;4.53;;;21.40;75.70;;;;;;5017411;28;20521;-82
2022/05/14 11:05:53;;;;;;;10.27;3.33;;;21.30;75.60;;;;;;5011162;28;20452;-84
2022/05/14 11:08:35;;;;;;;11.40;3.30;;;21.20;76.00;;;;;;5035470;28;20496;-83
2022/05/14 11:11:21;;;;;;;10.77;3.13;;;21.10;76.50;;;;;;5028001;28;20412;-82
2022/05/14 11:14:04;;;;;;;12.20;3.70;;;21.10;77.30;;;;;;5029302;28;20923;-80
2022/05/14 11:16:42;;;;;;;6.73;3.30;;;21.20;76.60;;;;;;5020818;28;20451;-83
2022/05/14 11:19:08;;;;;;;8.80;3.40;;;21.20;77.10;;;;;;5015301;28;20456;-82
2022/05/14 11:21:39;;;;;;;7.17;2.80;;;21.20;76.70;;;;;;5015260;28;20428;-82
2022/05/14 11:24:06;;;;;;;9.53;3.60;;;21.20;76.80;;;;;;5015662;28;20416;-83
2022/05/14 11:26:45;;;;;;;11.93;3.90;;;21.20;76.50;;;;;;5014358;28;20468;-83
2022/05/14 11:29:34;;;;;;;12.70;3.00;;;21.30;77.30;;;;;;5015595;28;20419;-84
2022/05/14 11:32:10;;;;;;;8.70;3.20;;;21.40;76.90;;;;;;5015706;28;20416;-84
2022/05/14 11:34:36;;;;;;;7.73;3.47;;;21.40;76.40;;;;;;5016497;28;20419;-82
2022/05/14 11:37:04;;;;;;;9.70;3.33;;;21.50;75.60;;;;;;5017232;28;20447;-82
2022/05/14 11:39:36;;;;;;;10.67;3.47;;;21.40;77.70;;;;;;5016773;28;20308;-83
2022/05/14 11:42:26;;;;;;;8.00;3.13;;;21.60;77.10;;;;;;5016988;28;20417;-83
2022/05/14 11:45:12;;;;;;;10.03;3.30;;;21.80;76.80;;;;;;5019954;28;20493;-83
2022/05/14 11:47:58;;;;;;;10.40;3.30;;;21.90;75.90;;;;;;5023599;28;20508;-80
2022/05/14 11:50:31;;;;;;;5.70;3.17;;;22.10;75.70;;;;;;5030300;28;20559;-80
2022/05/14 11:53:14;;;;;;;10.43;4.70;;;22.10;75.70;;;;;;5021515;28;20416;-80
2022/05/14 11:55:52;;;;;;;8.90;3.50;;;22.00;75.50;;;;;;5013577;28;20550;-81
2022/05/14 11:58:48;;;;;;;8.10;3.30;;;22.00;75.60;;;;;;5019584;28;20443;-86
2022/05/14 12:01:21;;;;;;;10.30;4.20;;;22.10;76.50;;;;;;5018726;28;20469;-79
2022/05/14 12:03:47;;;;;;;5.77;3.10;;;22.20;76.20;;;;;;5014034;28;20427;-81
2022/05/14 12:06:35;;;;;;;7.13;3.70;;;22.40;74.80;;;;;;5013980;28;20499;-82
2022/05/14 12:09:18;;;;;;;6.20;3.07;;;22.60;75.50;;;;;;5028316;28;20468;-82
2022/05/14 12:12:09;;;;;;;9.00;2.63;;;22.90;75.40;;;;;;5007947;28;20412;-81
2022/05/14 12:14:38;;;;;;;5.40;3.10;;;23.10;74.50;;;;;;5003710;28;20497;-81
2022/05/14 12:17:07;;;;;;;10.50;4.47;;;23.20;74.50;;;;;;5008169;28;20425;-82
2022/05/14 12:19:37;;;;;;;8.70;3.37;;;23.30;73.80;;;;;;5009156;28;20420;-83
2022/05/14 12:22:06;;;;;;;6.53;2.87;;;23.40;74.20;;;;;;5010185;28;20424;-81
2022/05/14 12:24:36;;;;;;;7.73;2.80;;;23.60;73.40;;;;;;5019141;28;20425;-83
2022/05/14 12:27:02;;;;;;;6.97;2.77;;;23.70;73.00;;;;;;5007963;28;20483;-80
2022/05/14 12:29:29;;;;;;;6.30;3.10;;;23.50;73.50;;;;;;5023678;28;20416;-83
2022/05/14 12:34:54;;;;;;;9.53;3.53;;;23.20;73.90;;;;;;5015109;28;20472;-82
2022/05/14 12:37:28;;;;;;;6.50;2.90;;;23.40;74.80;;;;;;5017152;28;20981;-82
2022/05/14 12:39:58;;;;;;;6.47;2.97;;;23.40;72.90;;;;;;5017821;28;20423;-81
2022/05/14 12:42:43;;;;;;;8.50;3.00;;;23.40;73.30;;;;;;5018614;28;20427;-82
2022/05/14 12:45:11;;;;;;;9.30;3.13;;;23.50;72.70;;;;;;5017398;28;20948;-82
2022/05/14 12:47:40;;;;;;;5.80;2.70;;;23.60;73.40;;;;;;5018517;28;20459;-82
2022/05/14 12:50:21;;;;;;;8.00;3.20;;;23.70;73.40;;;;;;5011917;28;20428;-78
2022/05/14 12:52:56;;;;;;;8.23;4.10;;;23.70;73.00;;;;;;5008803;28;20457;-78
2022/05/14 12:55:24;;;;;;;7.93;3.80;;;23.70;73.60;;;;;;5008043;28;20477;-78
2022/05/14 12:57:50;;;;;;;8.43;3.17;;;23.80;73.30;;;;;;5010073;28;20420;-79
2022/05/14 13:00:17;;;;;;;8.63;2.80;;;23.90;72.80;;;;;;5010907;28;20507;-79
2022/05/14 13:02:49;;;;;;;7.67;3.20;;;24.00;70.90;;;;;;5008727;28;20421;-79
2022/05/14 13:05:35;;;;;;;8.63;2.97;;;24.00;72.30;;;;;;5009101;28;20439;-78
2022/05/14 13:08:10;;;;;;;3.20;2.87;;;24.20;71.50;;;;;;5009076;28;20547;-78
2022/05/14 13:10:38;;;;;;;3.80;2.70;;;24.20;71.70;;;;;;5008486;28;20957;-77
2022/05/14 13:13:08;;;;;;;11.50;3.03;;;24.10;72.10;;;;;;5008329;28;20416;-76
2022/05/14 13:15:39;;;;;;;6.80;3.23;;;24.20;72.00;;;;;;5010240;28;20519;-77
2022/05/14 13:18:14;;;;;;;5.73;2.83;;;24.20;70.90;;;;;;5009284;28;20463;-77
2022/05/14 13:20:41;;;;;;;4.80;2.40;;;24.30;71.50;;;;;;5010568;28;20407;-80